sensor_id;sensor_type;location;lat;lon;timestamp;P1;durP1;ratioP1;P2;durP2;ratioP2
12660;SDS011;39039;51.802;5.710;2022-09-17T00:02:25;5.47;;;1.20;;
12660;SDS011;39039;51.802;5.710;2022-09-17T00:04:52;9.17;;;1.47;;
12660;SDS011;39039;51.802;5.710;2022-09-17T00:07:19;4.07;;;1.53;;
12660;SDS011;39039;51.802;5.710;2022-09-17T00:09:46;6.83;;;0.93;;
12660;SDS011;39039;51.802;5.710;2022-09-17T00:12:13;7.67;;;1.27;;
12660;SDS011;39039;51.802;5.710;2022-09-17T00:14:40;10.40;;;1.67;;
12660;SDS011;39039;51.802;5.710;2022-09-17T00:17:07;9.03;;;1.63;;
12660;SDS011;39039;51.802;5.710;2022-09-17T00:19:35;9.67;;;1.30;;
12660;SDS011;39039;51.802;5.710;2022-09-17T00:22:02;4.43;;;1.10;;
12660;SDS011;39039;51.802;5.710;2022-09-17T00:24:29;4.20;;;1.40;;
12660;SDS011;39039;51.802;5.710;2022-09-17T00:26:56;11.53;;;1.53;;
12660;SDS011;39039;51.802;5.710;2022-09-17T00:29:23;8.30;;;1.20;;
12660;SDS011;39039;51.802;5.710;2022-09-17T00:31:50;9.60;;;1.50;;
12660;SDS011;39039;51.802;5.710;2022-09-17T00:34:17;7.07;;;1.33;;
12660;SDS011;39039;51.802;5.710;2022-09-17T00:36:45;10.50;;;1.07;;
12660;SDS011;39039;51.802;5.710;2022-09-17T00:39:12;8.33;;;1.47;;
12660;SDS011;39039;51.802;5.710;2022-09-17T00:41:40;8.67;;;2.07;;
12660;SDS011;39039;51.802;5.710;2022-09-17T00:47:15;10.87;;;1.30;;
12660;SDS011;39039;51.802;5.710;2022-09-17T00:49:50;4.90;;;1.10;;
12660;SDS011;39039;51.802;5.710;2022-09-17T00:52:23;9.50;;;1.40;;
12660;SDS011;39039;51.802;5.710;2022-09-17T00:54:53;8.53;;;1.43;;
12660;SDS011;39039;51.802;5.710;2022-09-17T00:57:23;7.80;;;1.20;;
12660;SDS011;39039;51.802;5.710;2022-09-17T00:59:50;8.53;;;1.30;;
12660;SDS011;39039;51.802;5.710;2022-09-17T01:02:17;7.70;;;1.80;;
12660;SDS011;39039;51.802;5.710;2022-09-17T01:04:45;6.07;;;1.70;;
12660;SDS011;39039;51.802;5.710;2022-09-17T01:07:15;8.77;;;1.33;;
12660;SDS011;39039;51.802;5.710;2022-09-17T01:09:55;7.73;;;1.50;;
12660;SDS011;39039;51.802;5.710;2022-09-17T01:12:30;13.10;;;1.73;;
12660;SDS011;39039;51.802;5.710;2022-09-17T01:15:14;6.27;;;1.33;;
12660;SDS011;39039;51.802;5.710;2022-09-17T01:17:52;11.33;;;1.50;;
12660;SDS011;39039;51.802;5.710;2022-09-17T01:20:42;12.67;;;1.77;;
12660;SDS011;39039;51.802;5.710;2022-09-17T01:23:42;7.20;;;1.10;;
12660;SDS011;39039;51.802;5.710;2022-09-17T01:26:42;8.03;;;1.20;;
12660;SDS011;39039;51.802;5.710;2022-09-17T01:29:26;4.80;;;0.90;;
12660;SDS011;39039;51.802;5.710;2022-09-17T01:32:17;8.40;;;1.13;;
12660;SDS011;39039;51.802;5.710;2022-09-17T01:34:52;8.73;;;1.30;;
12660;SDS011;39039;51.802;5.710;2022-09-17T01:37:26;8.10;;;1.60;;
12660;SDS011;39039;51.802;5.710;2022-09-17T01:39:58;7.53;;;1.40;;
12660;SDS011;39039;51.802;5.710;2022-09-17T01:42:34;4.27;;;0.80;;
12660;SDS011;39039;51.802;5.710;2022-09-17T01:45:07;5.43;;;0.93;;
12660;SDS011;39039;51.802;5.710;2022-09-17T01:47:42;6.33;;;1.30;;
12660;SDS011;39039;51.802;5.710;2022-09-17T01:50:14;13.27;;;2.20;;
12660;SDS011;39039;51.802;5.710;2022-09-17T01:52:44;6.13;;;1.07;;
12660;SDS011;39039;51.802;5.710;2022-09-17T01:55:13;8.27;;;1.70;;
12660;SDS011;39039;51.802;5.710;2022-09-17T01:57:43;6.57;;;1.17;;
12660;SDS011;39039;51.802;5.710;2022-09-17T02:00:15;6.10;;;1.60;;
12660;SDS011;39039;51.802;5.710;2022-09-17T02:02:45;9.40;;;1.30;;
12660;SDS011;39039;51.802;5.710;2022-09-17T02:05:16;6.60;;;1.10;;
12660;SDS011;39039;51.802;5.710;2022-09-17T02:07:48;6.23;;;1.23;;
12660;SDS011;39039;51.802;5.710;2022-09-17T02:10:19;3.47;;;1.20;;
12660;SDS011;39039;51.802;5.710;2022-09-17T02:12:50;7.53;;;1.17;;
12660;SDS011;39039;51.802;5.710;2022-09-17T02:15:21;6.23;;;1.40;;
12660;SDS011;39039;51.802;5.710;2022-09-17T02:17:54;5.50;;;1.33;;
12660;SDS011;39039;51.802;5.710;2022-09-17T02:20:25;10.97;;;1.47;;
12660;SDS011;39039;51.802;5.710;2022-09-17T02:23:00;12.27;;;1.33;;
12660;SDS011;39039;51.802;5.710;2022-09-17T02:25:35;8.57;;;1.60;;
12660;SDS011;39039;51.802;5.710;2022-09-17T02:28:10;4.00;;;1.07;;
12660;SDS011;39039;51.802;5.710;2022-09-17T02:30:40;8.50;;;1.20;;
12660;SDS011;39039;51.802;5.710;2022-09-17T02:33:08;9.80;;;1.63;;
12660;SDS011;39039;51.802;5.710;2022-09-17T02:35:39;3.73;;;1.20;;
12660;SDS011;39039;51.802;5.710;2022-09-17T02:38:07;6.47;;;1.10;;
12660;SDS011;39039;51.802;5.710;2022-09-17T02:40:36;7.67;;;1.43;;
12660;SDS011;39039;51.802;5.710;2022-09-17T02:43:12;7.20;;;1.37;;
12660;SDS011;39039;51.802;5.710;2022-09-17T02:45:48;6.10;;;1.40;;
12660;SDS011;39039;51.802;5.710;2022-09-17T02:48:26;5.53;;;1.10;;
12660;SDS011;39039;51.802;5.710;2022-09-17T02:51:12;4.40;;;1.00;;
12660;SDS011;39039;51.802;5.710;2022-09-17T02:53:51;6.07;;;1.37;;
12660;SDS011;39039;51.802;5.710;2022-09-17T02:56:24;6.67;;;1.47;;
12660;SDS011;39039;51.802;5.710;2022-09-17T02:59:07;7.17;;;1.07;;
12660;SDS011;39039;51.802;5.710;2022-09-17T03:01:43;7.87;;;1.30;;
12660;SDS011;39039;51.802;5.710;2022-09-17T03:04:14;6.17;;;1.33;;
12660;SDS011;39039;51.802;5.710;2022-09-17T03:06:44;5.03;;;1.00;;
12660;SDS011;39039;51.802;5.710;2022-09-17T03:09:12;3.97;;;1.10;;
12660;SDS011;39039;51.802;5.710;2022-09-17T03:11:39;6.83;;;1.07;;
12660;SDS011;39039;51.802;5.710;2022-09-17T03:14:07;6.90;;;1.20;;
12660;SDS011;39039;51.802;5.710;2022-09-17T03:16:33;8.17;;;1.17;;
12660;SDS011;39039;51.802;5.710;2022-09-17T03:19:00;5.73;;;1.40;;
12660;SDS011;39039;51.802;5.710;2022-09-17T03:21:29;9.33;;;1.47;;
12660;SDS011;39039;51.802;5.710;2022-09-17T03:23:56;6.73;;;1.00;;
12660;SDS011;39039;51.802;5.710;2022-09-17T03:26:24;9.80;;;1.77;;
12660;SDS011;39039;51.802;5.710;2022-09-17T03:28:51;5.90;;;1.23;;
12660;SDS011;39039;51.802;5.710;2022-09-17T03:31:18;5.57;;;1.43;;
12660;SDS011;39039;51.802;5.710;2022-09-17T03:33:45;9.30;;;1.47;;
12660;SDS011;39039;51.802;5.710;2022-09-17T03:36:12;5.97;;;1.10;;
12660;SDS011;39039;51.802;5.710;2022-09-17T03:38:41;4.80;;;0.90;;
12660;SDS011;39039;51.802;5.710;2022-09-17T03:41:07;3.33;;;1.43;;
12660;SDS011;39039;51.802;5.710;2022-09-17T03:43:35;5.60;;;1.13;;
12660;SDS011;39039;51.802;5.710;2022-09-17T03:46:04;5.80;;;1.47;;
12660;SDS011;39039;51.802;5.710;2022-09-17T03:48:30;4.90;;;0.80;;
12660;SDS011;39039;51.802;5.710;2022-09-17T03:51:00;10.03;;;1.23;;
12660;SDS011;39039;51.802;5.710;2022-09-17T03:53:27;9.47;;;1.07;;
12660;SDS011;39039;51.802;5.710;2022-09-17T03:55:57;11.73;;;1.20;;
12660;SDS011;39039;51.802;5.710;2022-09-17T03:58:24;7.13;;;1.27;;
12660;SDS011;39039;51.802;5.710;2022-09-17T04:00:51;6.50;;;1.80;;
12660;SDS011;39039;51.802;5.710;2022-09-17T04:03:21;4.83;;;1.47;;
12660;SDS011;39039;51.802;5.710;2022-09-17T04:05:49;7.00;;;1.43;;
12660;SDS011;39039;51.802;5.710;2022-09-17T04:08:16;3.17;;;0.90;;
12660;SDS011;39039;51.802;5.710;2022-09-17T04:10:43;9.93;;;1.47;;
12660;SDS011;39039;51.802;5.710;2022-09-17T04:13:12;8.00;;;1.30;;
12660;SDS011;39039;51.802;5.710;2022-09-17T04:15:40;3.80;;;0.90;;
12660;SDS011;39039;51.802;5.710;2022-09-17T04:18:08;6.53;;;1.00;;
12660;SDS011;39039;51.802;5.710;2022-09-17T04:20:34;5.07;;;0.77;;
12660;SDS011;39039;51.802;5.710;2022-09-17T04:23:02;7.53;;;0.83;;
12660;SDS011;39039;51.802;5.710;2022-09-17T04:25:31;5.50;;;1.23;;
12660;SDS011;39039;51.802;5.710;2022-09-17T04:27:58;4.57;;;1.00;;
12660;SDS011;39039;51.802;5.710;2022-09-17T04:30:26;5.13;;;1.03;;
12660;SDS011;39039;51.802;5.710;2022-09-17T04:32:53;12.60;;;1.60;;
12660;SDS011;39039;51.802;5.710;2022-09-17T04:35:20;4.73;;;1.67;;
12660;SDS011;39039;51.802;5.710;2022-09-17T04:37:50;6.70;;;0.97;;
12660;SDS011;39039;51.802;5.710;2022-09-17T04:40:18;8.37;;;1.17;;
12660;SDS011;39039;51.802;5.710;2022-09-17T04:42:45;7.50;;;1.00;;
12660;SDS011;39039;51.802;5.710;2022-09-17T04:45:12;8.93;;;1.10;;
12660;SDS011;39039;51.802;5.710;2022-09-17T04:47:40;6.33;;;1.27;;
12660;SDS011;39039;51.802;5.710;2022-09-17T04:50:07;8.37;;;1.43;;
12660;SDS011;39039;51.802;5.710;2022-09-17T04:52:35;5.10;;;0.90;;
12660;SDS011;39039;51.802;5.710;2022-09-17T04:55:02;9.63;;;1.27;;
12660;SDS011;39039;51.802;5.710;2022-09-17T04:57:29;6.30;;;1.10;;
12660;SDS011;39039;51.802;5.710;2022-09-17T04:59:56;4.03;;;0.93;;
12660;SDS011;39039;51.802;5.710;2022-09-17T05:02:23;5.27;;;0.80;;
12660;SDS011;39039;51.802;5.710;2022-09-17T05:04:52;4.47;;;1.07;;
12660;SDS011;39039;51.802;5.710;2022-09-17T05:07:20;6.80;;;1.13;;
12660;SDS011;39039;51.802;5.710;2022-09-17T05:09:48;4.47;;;1.10;;
12660;SDS011;39039;51.802;5.710;2022-09-17T05:12:15;6.77;;;0.90;;
12660;SDS011;39039;51.802;5.710;2022-09-17T05:14:42;7.30;;;1.20;;
12660;SDS011;39039;51.802;5.710;2022-09-17T05:17:09;3.83;;;1.13;;
12660;SDS011;39039;51.802;5.710;2022-09-17T05:19:35;7.77;;;1.00;;
12660;SDS011;39039;51.802;5.710;2022-09-17T05:22:03;4.83;;;1.00;;
12660;SDS011;39039;51.802;5.710;2022-09-17T05:24:30;3.83;;;1.10;;
12660;SDS011;39039;51.802;5.710;2022-09-17T05:26:57;8.17;;;1.00;;
12660;SDS011;39039;51.802;5.710;2022-09-17T05:29:24;7.20;;;1.10;;
12660;SDS011;39039;51.802;5.710;2022-09-17T05:31:51;5.37;;;1.20;;
12660;SDS011;39039;51.802;5.710;2022-09-17T05:34:18;3.70;;;1.00;;
12660;SDS011;39039;51.802;5.710;2022-09-17T05:36:45;6.43;;;0.90;;
12660;SDS011;39039;51.802;5.710;2022-09-17T05:39:14;6.80;;;1.27;;
12660;SDS011;39039;51.802;5.710;2022-09-17T05:41:41;6.07;;;1.10;;
12660;SDS011;39039;51.802;5.710;2022-09-17T05:44:08;7.20;;;1.33;;
12660;SDS011;39039;51.802;5.710;2022-09-17T05:46:35;8.27;;;1.33;;
12660;SDS011;39039;51.802;5.710;2022-09-17T05:49:02;4.97;;;1.33;;
12660;SDS011;39039;51.802;5.710;2022-09-17T05:51:29;4.23;;;0.90;;
12660;SDS011;39039;51.802;5.710;2022-09-17T05:53:56;4.30;;;1.20;;
12660;SDS011;39039;51.802;5.710;2022-09-17T05:56:24;6.60;;;1.17;;
12660;SDS011;39039;51.802;5.710;2022-09-17T05:58:53;6.57;;;1.10;;
12660;SDS011;39039;51.802;5.710;2022-09-17T06:01:20;7.90;;;1.20;;
12660;SDS011;39039;51.802;5.710;2022-09-17T06:03:47;8.27;;;1.10;;
12660;SDS011;39039;51.802;5.710;2022-09-17T06:06:14;5.90;;;1.20;;
12660;SDS011;39039;51.802;5.710;2022-09-17T06:08:41;3.87;;;0.80;;
12660;SDS011;39039;51.802;5.710;2022-09-17T06:11:08;5.67;;;0.93;;
12660;SDS011;39039;51.802;5.710;2022-09-17T06:13:36;6.97;;;0.87;;
12660;SDS011;39039;51.802;5.710;2022-09-17T06:16:03;7.43;;;1.00;;
12660;SDS011;39039;51.802;5.710;2022-09-17T06:18:30;5.03;;;1.03;;
12660;SDS011;39039;51.802;5.710;2022-09-17T06:20:58;3.70;;;0.90;;
12660;SDS011;39039;51.802;5.710;2022-09-17T06:23:26;2.93;;;0.77;;
12660;SDS011;39039;51.802;5.710;2022-09-17T06:25:53;8.00;;;1.10;;
12660;SDS011;39039;51.802;5.710;2022-09-17T06:28:22;4.67;;;0.73;;
12660;SDS011;39039;51.802;5.710;2022-09-17T06:30:50;4.23;;;0.80;;
12660;SDS011;39039;51.802;5.710;2022-09-17T06:33:18;9.30;;;1.13;;
12660;SDS011;39039;51.802;5.710;2022-09-17T06:35:45;4.80;;;1.10;;
12660;SDS011;39039;51.802;5.710;2022-09-17T06:38:12;3.17;;;1.20;;
12660;SDS011;39039;51.802;5.710;2022-09-17T06:40:39;6.83;;;1.00;;
12660;SDS011;39039;51.802;5.710;2022-09-17T06:43:06;4.80;;;0.93;;
12660;SDS011;39039;51.802;5.710;2022-09-17T06:45:33;2.80;;;0.50;;
12660;SDS011;39039;51.802;5.710;2022-09-17T06:48:03;7.57;;;0.93;;
12660;SDS011;39039;51.802;5.710;2022-09-17T06:50:31;4.00;;;0.57;;
12660;SDS011;39039;51.802;5.710;2022-09-17T06:52:58;4.10;;;0.77;;
12660;SDS011;39039;51.802;5.710;2022-09-17T06:55:25;5.13;;;0.70;;
12660;SDS011;39039;51.802;5.710;2022-09-17T06:57:52;5.10;;;0.60;;
12660;SDS011;39039;51.802;5.710;2022-09-17T07:00:19;2.90;;;0.63;;
12660;SDS011;39039;51.802;5.710;2022-09-17T07:02:53;4.43;;;0.63;;
12660;SDS011;39039;51.802;5.710;2022-09-17T07:05:22;5.63;;;0.80;;
12660;SDS011;39039;51.802;5.710;2022-09-17T07:07:49;3.87;;;0.83;;
12660;SDS011;39039;51.802;5.710;2022-09-17T07:10:16;4.07;;;0.93;;
12660;SDS011;39039;51.802;5.710;2022-09-17T07:12:43;2.83;;;0.70;;
12660;SDS011;39039;51.802;5.710;2022-09-17T07:15:11;3.17;;;0.50;;
12660;SDS011;39039;51.802;5.710;2022-09-17T07:17:37;3.37;;;1.00;;
12660;SDS011;39039;51.802;5.710;2022-09-17T07:20:05;4.87;;;0.60;;
12660;SDS011;39039;51.802;5.710;2022-09-17T07:22:34;3.37;;;0.40;;
12660;SDS011;39039;51.802;5.710;2022-09-17T07:25:01;2.67;;;0.60;;
12660;SDS011;39039;51.802;5.710;2022-09-17T07:27:28;4.23;;;0.60;;
12660;SDS011;39039;51.802;5.710;2022-09-17T07:29:56;3.37;;;0.80;;
12660;SDS011;39039;51.802;5.710;2022-09-17T07:32:23;3.73;;;0.67;;
12660;SDS011;39039;51.802;5.710;2022-09-17T07:34:50;6.00;;;0.63;;
12660;SDS011;39039;51.802;5.710;2022-09-17T07:37:17;2.60;;;0.47;;
12660;SDS011;39039;51.802;5.710;2022-09-17T07:39:46;2.73;;;0.80;;
12660;SDS011;39039;51.802;5.710;2022-09-17T07:42:13;5.07;;;0.90;;
12660;SDS011;39039;51.802;5.710;2022-09-17T07:44:40;3.23;;;0.53;;
12660;SDS011;39039;51.802;5.710;2022-09-17T07:47:08;4.13;;;0.50;;
12660;SDS011;39039;51.802;5.710;2022-09-17T07:49:34;2.20;;;0.70;;
12660;SDS011;39039;51.802;5.710;2022-09-17T07:52:01;3.33;;;0.63;;
12660;SDS011;39039;51.802;5.710;2022-09-17T07:54:30;2.73;;;0.60;;
12660;SDS011;39039;51.802;5.710;2022-09-17T07:56:58;6.00;;;0.60;;
12660;SDS011;39039;51.802;5.710;2022-09-17T07:59:25;5.87;;;0.80;;
12660;SDS011;39039;51.802;5.710;2022-09-17T08:01:52;8.60;;;0.60;;
12660;SDS011;39039;51.802;5.710;2022-09-17T08:04:19;3.37;;;0.50;;
12660;SDS011;39039;51.802;5.710;2022-09-17T08:06:46;5.10;;;1.03;;
12660;SDS011;39039;51.802;5.710;2022-09-17T08:09:13;3.63;;;0.90;;
12660;SDS011;39039;51.802;5.710;2022-09-17T08:11:42;2.30;;;0.63;;
12660;SDS011;39039;51.802;5.710;2022-09-17T08:14:11;5.07;;;0.80;;
12660;SDS011;39039;51.802;5.710;2022-09-17T08:16:39;4.57;;;0.60;;
12660;SDS011;39039;51.802;5.710;2022-09-17T08:19:07;3.67;;;0.57;;
12660;SDS011;39039;51.802;5.710;2022-09-17T08:21:35;6.03;;;0.70;;
12660;SDS011;39039;51.802;5.710;2022-09-17T08:24:01;4.40;;;0.90;;
12660;SDS011;39039;51.802;5.710;2022-09-17T08:26:28;4.00;;;0.60;;
12660;SDS011;39039;51.802;5.710;2022-09-17T08:28:55;3.03;;;0.60;;
12660;SDS011;39039;51.802;5.710;2022-09-17T08:31:25;3.10;;;0.47;;
12660;SDS011;39039;51.802;5.710;2022-09-17T08:33:54;1.77;;;0.50;;
12660;SDS011;39039;51.802;5.710;2022-09-17T08:36:21;4.30;;;0.67;;
12660;SDS011;39039;51.802;5.710;2022-09-17T08:38:50;4.73;;;0.60;;
12660;SDS011;39039;51.802;5.710;2022-09-17T08:41:19;7.07;;;0.70;;
12660;SDS011;39039;51.802;5.710;2022-09-17T08:43:57;2.80;;;0.30;;
12660;SDS011;39039;51.802;5.710;2022-09-17T08:46:35;3.27;;;0.60;;
12660;SDS011;39039;51.802;5.710;2022-09-17T08:49:10;1.50;;;0.50;;
12660;SDS011;39039;51.802;5.710;2022-09-17T08:51:47;1.43;;;0.57;;
12660;SDS011;39039;51.802;5.710;2022-09-17T08:54:24;2.63;;;0.77;;
12660;SDS011;39039;51.802;5.710;2022-09-17T08:57:00;3.47;;;0.80;;
12660;SDS011;39039;51.802;5.710;2022-09-17T08:59:36;4.13;;;0.60;;
12660;SDS011;39039;51.802;5.710;2022-09-17T09:02:13;4.13;;;0.50;;
12660;SDS011;39039;51.802;5.710;2022-09-17T09:04:57;3.00;;;0.43;;
12660;SDS011;39039;51.802;5.710;2022-09-17T09:07:29;3.20;;;0.90;;
12660;SDS011;39039;51.802;5.710;2022-09-17T09:10:06;1.87;;;0.57;;
12660;SDS011;39039;51.802;5.710;2022-09-17T09:12:38;2.67;;;1.40;;
12660;SDS011;39039;51.802;5.710;2022-09-17T09:15:07;3.17;;;0.60;;
12660;SDS011;39039;51.802;5.710;2022-09-17T09:17:48;2.83;;;0.47;;
12660;SDS011;39039;51.802;5.710;2022-09-17T09:20:16;1.73;;;0.33;;
12660;SDS011;39039;51.802;5.710;2022-09-17T09:22:48;3.17;;;0.60;;
12660;SDS011;39039;51.802;5.710;2022-09-17T09:25:20;1.90;;;0.50;;
12660;SDS011;39039;51.802;5.710;2022-09-17T09:30:42;4.60;;;0.60;;
12660;SDS011;39039;51.802;5.710;2022-09-17T09:33:23;2.10;;;0.70;;
12660;SDS011;39039;51.802;5.710;2022-09-17T09:35:55;1.27;;;0.20;;
12660;SDS011;39039;51.802;5.710;2022-09-17T09:38:24;0.83;;;0.40;;
12660;SDS011;39039;51.802;5.710;2022-09-17T09:40:59;4.97;;;0.90;;
12660;SDS011;39039;51.802;5.710;2022-09-17T09:43:34;4.93;;;1.07;;
12660;SDS011;39039;51.802;5.710;2022-09-17T09:46:06;1.83;;;0.43;;
12660;SDS011;39039;51.802;5.710;2022-09-17T09:48:46;3.10;;;0.63;;
12660;SDS011;39039;51.802;5.710;2022-09-17T09:51:20;6.33;;;0.60;;
12660;SDS011;39039;51.802;5.710;2022-09-17T09:53:52;4.90;;;0.47;;
12660;SDS011;39039;51.802;5.710;2022-09-17T09:56:35;2.03;;;0.50;;
12660;SDS011;39039;51.802;5.710;2022-09-17T09:59:10;4.93;;;0.83;;
12660;SDS011;39039;51.802;5.710;2022-09-17T10:01:37;1.77;;;0.50;;
12660;SDS011;39039;51.802;5.710;2022-09-17T10:04:13;2.07;;;0.50;;
12660;SDS011;39039;51.802;5.710;2022-09-17T10:06:43;3.30;;;0.60;;
12660;SDS011;39039;51.802;5.710;2022-09-17T10:09:12;1.80;;;0.63;;
12660;SDS011;39039;51.802;5.710;2022-09-17T10:11:40;3.17;;;0.40;;
12660;SDS011;39039;51.802;5.710;2022-09-17T10:17:09;3.27;;;0.93;;
12660;SDS011;39039;51.802;5.710;2022-09-17T10:19:46;3.13;;;0.43;;
12660;SDS011;39039;51.802;5.710;2022-09-17T10:22:29;2.73;;;0.50;;
12660;SDS011;39039;51.802;5.710;2022-09-17T10:24:58;4.90;;;1.03;;
12660;SDS011;39039;51.802;5.710;2022-09-17T10:27:26;4.07;;;0.60;;
12660;SDS011;39039;51.802;5.710;2022-09-17T10:29:57;2.93;;;0.40;;
12660;SDS011;39039;51.802;5.710;2022-09-17T10:32:28;2.93;;;0.47;;
12660;SDS011;39039;51.802;5.710;2022-09-17T10:34:58;4.73;;;0.50;;
12660;SDS011;39039;51.802;5.710;2022-09-17T10:37:32;3.00;;;0.50;;
12660;SDS011;39039;51.802;5.710;2022-09-17T10:40:01;0.80;;;0.30;;
12660;SDS011;39039;51.802;5.710;2022-09-17T10:45:43;1.48;;;0.40;;
12660;SDS011;39039;51.802;5.710;2022-09-17T10:48:19;1.53;;;0.50;;
12660;SDS011;39039;51.802;5.710;2022-09-17T10:50:49;2.17;;;0.57;;
12660;SDS011;39039;51.802;5.710;2022-09-17T10:53:18;6.90;;;0.60;;
12660;SDS011;39039;51.802;5.710;2022-09-17T10:55:48;2.87;;;0.50;;
12660;SDS011;39039;51.802;5.710;2022-09-17T10:58:22;2.57;;;0.60;;
12660;SDS011;39039;51.802;5.710;2022-09-17T11:00:58;5.60;;;1.10;;
12660;SDS011;39039;51.802;5.710;2022-09-17T11:03:36;2.43;;;0.63;;
12660;SDS011;39039;51.802;5.710;2022-09-17T11:06:34;2.07;;;0.37;;
12660;SDS011;39039;51.802;5.710;2022-09-17T11:09:18;2.43;;;0.50;;
12660;SDS011;39039;51.802;5.710;2022-09-17T11:11:54;2.20;;;0.57;;
12660;SDS011;39039;51.802;5.710;2022-09-17T11:14:34;1.58;;;0.40;;
12660;SDS011;39039;51.802;5.710;2022-09-17T11:17:08;1.45;;;0.30;;
12660;SDS011;39039;51.802;5.710;2022-09-17T11:19:44;2.75;;;0.50;;
12660;SDS011;39039;51.802;5.710;2022-09-17T11:22:20;2.05;;;0.50;;
12660;SDS011;39039;51.802;5.710;2022-09-17T11:24:55;3.55;;;0.50;;
12660;SDS011;39039;51.802;5.710;2022-09-17T11:27:36;4.97;;;0.82;;
12660;SDS011;39039;51.802;5.710;2022-09-17T11:30:28;3.53;;;0.70;;
12660;SDS011;39039;51.802;5.710;2022-09-17T11:33:14;1.75;;;0.40;;
12660;SDS011;39039;51.802;5.710;2022-09-17T11:38:25;3.28;;;0.68;;
12660;SDS011;39039;51.802;5.710;2022-09-17T11:40:57;4.63;;;0.77;;
12660;SDS011;39039;51.802;5.710;2022-09-17T11:43:28;4.63;;;0.77;;
12660;SDS011;39039;51.802;5.710;2022-09-17T11:45:59;0.80;;;0.50;;
12660;SDS011;39039;51.802;5.710;2022-09-17T11:48:32;1.63;;;0.38;;
12660;SDS011;39039;51.802;5.710;2022-09-17T11:51:07;3.65;;;0.82;;
12660;SDS011;39039;51.802;5.710;2022-09-17T11:53:46;3.97;;;0.70;;
12660;SDS011;39039;51.802;5.710;2022-09-17T11:56:18;1.88;;;0.50;;
12660;SDS011;39039;51.802;5.710;2022-09-17T11:58:49;5.97;;;0.65;;
12660;SDS011;39039;51.802;5.710;2022-09-17T12:01:20;2.05;;;0.60;;
12660;SDS011;39039;51.802;5.710;2022-09-17T12:03:55;1.20;;;0.20;;
12660;SDS011;39039;51.802;5.710;2022-09-17T12:06:27;3.13;;;0.43;;
12660;SDS011;39039;51.802;5.710;2022-09-17T12:09:07;9.20;;;0.77;;
12660;SDS011;39039;51.802;5.710;2022-09-17T12:11:39;1.80;;;0.57;;
12660;SDS011;39039;51.802;5.710;2022-09-17T12:14:13;2.80;;;0.70;;
12660;SDS011;39039;51.802;5.710;2022-09-17T12:16:44;4.47;;;0.73;;
12660;SDS011;39039;51.802;5.710;2022-09-17T12:19:16;4.70;;;0.93;;
12660;SDS011;39039;51.802;5.710;2022-09-17T12:21:47;1.73;;;0.50;;
12660;SDS011;39039;51.802;5.710;2022-09-17T12:24:20;3.03;;;0.70;;
12660;SDS011;39039;51.802;5.710;2022-09-17T12:26:52;3.90;;;0.70;;
12660;SDS011;39039;51.802;5.710;2022-09-17T12:29:53;6.10;;;0.80;;
12660;SDS011;39039;51.802;5.710;2022-09-17T12:32:35;5.13;;;0.70;;
12660;SDS011;39039;51.802;5.710;2022-09-17T12:35:15;3.50;;;0.70;;
12660;SDS011;39039;51.802;5.710;2022-09-17T12:38:00;3.53;;;0.73;;
12660;SDS011;39039;51.802;5.710;2022-09-17T12:40:36;5.93;;;1.07;;
12660;SDS011;39039;51.802;5.710;2022-09-17T12:43:14;4.70;;;0.60;;
12660;SDS011;39039;51.802;5.710;2022-09-17T12:45:58;1.70;;;0.50;;
12660;SDS011;39039;51.802;5.710;2022-09-17T12:48:56;5.80;;;0.90;;
12660;SDS011;39039;51.802;5.710;2022-09-17T12:51:41;2.70;;;0.70;;
12660;SDS011;39039;51.802;5.710;2022-09-17T12:54:21;5.17;;;0.50;;
12660;SDS011;39039;51.802;5.710;2022-09-17T12:57:12;3.87;;;0.80;;
12660;SDS011;39039;51.802;5.710;2022-09-17T12:59:45;4.47;;;0.80;;
12660;SDS011;39039;51.802;5.710;2022-09-17T13:02:18;4.87;;;0.50;;
12660;SDS011;39039;51.802;5.710;2022-09-17T13:04:59;4.53;;;0.60;;
12660;SDS011;39039;51.802;5.710;2022-09-17T13:11:31;4.63;;;0.63;;
12660;SDS011;39039;51.802;5.710;2022-09-17T13:14:16;2.60;;;0.50;;
12660;SDS011;39039;51.802;5.710;2022-09-17T13:16:50;1.93;;;0.50;;
12660;SDS011;39039;51.802;5.710;2022-09-17T13:19:24;1.90;;;0.47;;
12660;SDS011;39039;51.802;5.710;2022-09-17T13:21:59;3.60;;;0.50;;
12660;SDS011;39039;51.802;5.710;2022-09-17T13:24:31;1.07;;;0.30;;
12660;SDS011;39039;51.802;5.710;2022-09-17T13:27:00;3.63;;;0.40;;
12660;SDS011;39039;51.802;5.710;2022-09-17T13:38:17;2.83;;;0.30;;
12660;SDS011;39039;51.802;5.710;2022-09-17T13:40:45;1.70;;;0.50;;
12660;SDS011;39039;51.802;5.710;2022-09-17T13:43:13;7.40;;;0.93;;
12660;SDS011;39039;51.802;5.710;2022-09-17T13:48:35;2.10;;;0.70;;
12660;SDS011;39039;51.802;5.710;2022-09-17T13:54:09;1.40;;;0.50;;
12660;SDS011;39039;51.802;5.710;2022-09-17T13:56:37;3.20;;;0.60;;
12660;SDS011;39039;51.802;5.710;2022-09-17T13:59:07;4.33;;;0.73;;
12660;SDS011;39039;51.802;5.710;2022-09-17T14:01:57;1.73;;;0.53;;
12660;SDS011;39039;51.802;5.710;2022-09-17T14:16:00;3.13;;;0.70;;
12660;SDS011;39039;51.802;5.710;2022-09-17T14:18:35;3.83;;;0.90;;
12660;SDS011;39039;51.802;5.710;2022-09-17T14:21:14;4.47;;;1.00;;
12660;SDS011;39039;51.802;5.710;2022-09-17T14:23:56;4.40;;;0.50;;
12660;SDS011;39039;51.802;5.710;2022-09-17T14:26:27;3.83;;;0.97;;
12660;SDS011;39039;51.802;5.710;2022-09-17T14:29:06;4.73;;;0.83;;
12660;SDS011;39039;51.802;5.710;2022-09-17T14:31:44;6.40;;;1.50;;
12660;SDS011;39039;51.802;5.710;2022-09-17T14:34:14;6.10;;;0.97;;
12660;SDS011;39039;51.802;5.710;2022-09-17T14:36:46;3.23;;;0.70;;
12660;SDS011;39039;51.802;5.710;2022-09-17T14:39:14;7.10;;;0.80;;
12660;SDS011;39039;51.802;5.710;2022-09-17T14:41:46;6.03;;;0.90;;
12660;SDS011;39039;51.802;5.710;2022-09-17T14:44:17;3.27;;;1.00;;
12660;SDS011;39039;51.802;5.710;2022-09-17T14:46:47;7.97;;;0.90;;
12660;SDS011;39039;51.802;5.710;2022-09-17T14:49:19;7.37;;;0.93;;
12660;SDS011;39039;51.802;5.710;2022-09-17T14:51:47;4.23;;;0.70;;
12660;SDS011;39039;51.802;5.710;2022-09-17T14:54:18;5.70;;;1.20;;
12660;SDS011;39039;51.802;5.710;2022-09-17T14:56:56;2.87;;;0.57;;
12660;SDS011;39039;51.802;5.710;2022-09-17T15:02:21;5.13;;;0.70;;
12660;SDS011;39039;51.802;5.710;2022-09-17T15:04:59;2.47;;;1.17;;
12660;SDS011;39039;51.802;5.710;2022-09-17T15:07:28;3.40;;;0.70;;
12660;SDS011;39039;51.802;5.710;2022-09-17T15:10:04;2.73;;;0.80;;
12660;SDS011;39039;51.802;5.710;2022-09-17T15:12:33;3.27;;;0.67;;
12660;SDS011;39039;51.802;5.710;2022-09-17T15:15:00;7.73;;;1.30;;
12660;SDS011;39039;51.802;5.710;2022-09-17T15:17:28;4.70;;;0.70;;
12660;SDS011;39039;51.802;5.710;2022-09-17T15:19:57;4.30;;;0.70;;
12660;SDS011;39039;51.802;5.710;2022-09-17T15:22:28;3.33;;;0.90;;
12660;SDS011;39039;51.802;5.710;2022-09-17T15:25:00;2.50;;;0.80;;
12660;SDS011;39039;51.802;5.710;2022-09-17T15:27:30;3.87;;;0.97;;
12660;SDS011;39039;51.802;5.710;2022-09-17T15:30:00;3.57;;;0.67;;
12660;SDS011;39039;51.802;5.710;2022-09-17T15:32:29;7.60;;;1.13;;
12660;SDS011;39039;51.802;5.710;2022-09-17T15:35:17;6.43;;;1.17;;
12660;SDS011;39039;51.802;5.710;2022-09-17T15:37:47;8.70;;;1.07;;
12660;SDS011;39039;51.802;5.710;2022-09-17T15:40:22;5.63;;;0.80;;
12660;SDS011;39039;51.802;5.710;2022-09-17T15:42:52;10.13;;;1.52;;
12660;SDS011;39039;51.802;5.710;2022-09-17T15:45:26;3.40;;;1.25;;
12660;SDS011;39039;51.802;5.710;2022-09-17T15:47:56;5.03;;;0.98;;
12660;SDS011;39039;51.802;5.710;2022-09-17T15:50:25;5.32;;;1.45;;
12660;SDS011;39039;51.802;5.710;2022-09-17T15:55:39;2.72;;;0.93;;
12660;SDS011;39039;51.802;5.710;2022-09-17T15:58:22;3.65;;;0.90;;
12660;SDS011;39039;51.802;5.710;2022-09-17T16:06:54;9.25;;;1.10;;
12660;SDS011;39039;51.802;5.710;2022-09-17T16:09:43;5.50;;;1.00;;
12660;SDS011;39039;51.802;5.710;2022-09-17T16:12:13;2.70;;;0.77;;